createdAt,value
2022-09-29T00:00:41.194Z,94561.09
2022-09-29T00:03:08.845Z,94564.31
2022-09-29T00:05:36.499Z,94565.16
2022-09-29T00:08:04.125Z,94558.50
2022-09-29T00:10:31.766Z,94567.91
2022-09-29T00:12:59.147Z,94562.25
2022-09-29T00:15:26.432Z,94565.41
2022-09-29T00:20:41.192Z,94570.22
2022-09-29T00:23:08.185Z,94572.72
2022-09-29T00:25:35.489Z,94575.94
2022-09-29T00:28:02.758Z,94580.88
2022-09-29T00:30:29.981Z,94578.50
2022-09-29T00:32:57.534Z,94585.22
2022-09-29T00:35:24.756Z,94581.38
2022-09-29T00:37:52.003Z,94575.34
2022-09-29T00:40:19.094Z,94580.91
2022-09-29T00:42:46.379Z,94575.53
2022-09-29T00:45:20.799Z,94573.59
2022-09-29T00:47:53.535Z,94580.41
2022-09-29T00:50:28.625Z,94578.06
2022-09-29T00:53:02.046Z,94570.91
2022-09-29T00:55:37.211Z,94574.75
2022-09-29T00:58:11.154Z,94579.25
2022-09-29T01:00:39.503Z,94580.16
2022-09-29T01:03:15.873Z,94578.47
2022-09-29T01:05:57.599Z,94581.94
2022-09-29T01:08:52.458Z,94586.16
2022-09-29T01:11:22.441Z,94574.78
2022-09-29T01:13:51.029Z,94586.16
2022-09-29T01:16:18.644Z,94586.00
2022-09-29T01:18:46.784Z,94577.31
2022-09-29T01:21:23.785Z,94580.34
2022-09-29T01:24:04.012Z,94587.78
2022-09-29T01:27:08.066Z,94579.38
2022-09-29T01:30:02.770Z,94577.59
2022-09-29T01:33:03.460Z,94586.00
2022-09-29T01:35:57.872Z,94586.25
2022-09-29T01:38:51.638Z,94585.00
2022-09-29T01:41:49.152Z,94588.22
2022-09-29T01:44:21.992Z,94583.66
2022-09-29T01:46:54.061Z,94585.53
2022-09-29T01:49:23.309Z,94584.38
2022-09-29T01:52:07.877Z,94589.41
2022-09-29T01:54:57.968Z,94581.78
2022-09-29T01:57:30.229Z,94584.84
2022-09-29T02:00:09.413Z,94578.84
2022-09-29T02:02:47.403Z,94578.72
2022-09-29T02:05:22.558Z,94592.78
2022-09-29T02:07:50.883Z,94587.69
2022-09-29T02:10:24.170Z,94583.84
2022-09-29T02:12:54.201Z,94588.50
2022-09-29T02:15:27.145Z,94596.28
2022-09-29T02:17:55.926Z,94597.53
2022-09-29T02:20:22.814Z,94595.75
2022-09-29T02:22:49.676Z,94597.81
2022-09-29T02:25:19.146Z,94594.69
2022-09-29T02:27:50.442Z,94601.31
2022-09-29T02:30:18.359Z,94597.53
2022-09-29T02:32:47.596Z,94598.47
2022-09-29T02:35:15.361Z,94597.06
2022-09-29T02:38:04.006Z,94597.63
2022-09-29T02:41:06.657Z,94609.91
2022-09-29T02:43:40.821Z,94605.94
2022-09-29T02:46:25.762Z,94612.13
2022-09-29T02:49:10.990Z,94609.53
2022-09-29T02:51:42.990Z,94618.66
2022-09-29T02:54:31.958Z,94614.09
2022-09-29T02:57:06.626Z,94616.97
2022-09-29T03:00:05.681Z,94618.59
2022-09-29T03:02:32.447Z,94621.19
2022-09-29T03:04:59.518Z,94619.84
2022-09-29T03:07:26.294Z,94620.66
2022-09-29T03:09:53.344Z,94612.69
2022-09-29T03:12:20.662Z,94613.47
2022-09-29T03:14:47.464Z,94613.31
2022-09-29T03:17:14.358Z,94608.91
2022-09-29T03:19:41.260Z,94602.28
2022-09-29T03:22:07.991Z,94608.84
2022-09-29T03:24:35.491Z,94602.63
2022-09-29T03:27:02.480Z,94609.44
2022-09-29T03:29:29.213Z,94605.88
2022-09-29T03:31:55.983Z,94612.75
2022-09-29T03:34:22.783Z,94601.59
2022-09-29T03:36:49.487Z,94600.66
2022-09-29T03:39:16.310Z,94607.03
2022-09-29T03:41:43.110Z,94608.19
2022-09-29T03:44:09.878Z,94610.06
2022-09-29T03:46:36.615Z,94613.81
2022-09-29T03:49:03.475Z,94621.28
2022-09-29T03:51:30.273Z,94620.00
2022-09-29T03:53:56.988Z,94611.56
2022-09-29T03:56:23.707Z,94614.63
2022-09-29T03:58:50.532Z,94623.03
2022-09-29T04:01:17.363Z,94620.91
2022-09-29T04:03:44.225Z,94625.94
2022-09-29T04:06:11.050Z,94622.16
2022-09-29T04:08:37.838Z,94625.41
2022-09-29T04:11:05.771Z,94625.41
2022-09-29T04:13:33.397Z,94627.81
2022-09-29T04:16:05.241Z,94630.06
2022-09-29T04:18:32.289Z,94628.44
2022-09-29T04:21:00.957Z,94631.03
2022-09-29T04:23:30.123Z,94633.28
2022-09-29T04:25:58.424Z,94626.13
2022-09-29T04:28:26.035Z,94630.59
2022-09-29T04:30:52.824Z,94632.84
2022-09-29T04:33:19.596Z,94633.66
2022-09-29T04:35:47.035Z,94633.28
2022-09-29T04:38:13.806Z,94634.91
2022-09-29T04:40:40.863Z,94630.16
2022-09-29T04:43:07.755Z,94631.78
2022-09-29T04:45:34.531Z,94635.44
2022-09-29T04:48:01.658Z,94627.66
2022-09-29T04:50:29.163Z,94635.44
2022-09-29T04:52:56.168Z,94633.66
2022-09-29T04:55:23.155Z,94628.09
2022-09-29T04:57:49.970Z,94630.16
2022-09-29T05:00:16.835Z,94629.19
2022-09-29T05:02:47.644Z,94631.53
2022-09-29T05:05:16.546Z,94632.66
2022-09-29T05:07:44.620Z,94633.84
2022-09-29T05:10:11.455Z,94650.25
2022-09-29T05:12:38.205Z,94633.94
2022-09-29T05:15:06.321Z,94644.41
2022-09-29T05:17:33.932Z,94647.72
2022-09-29T05:20:00.889Z,94648.19
2022-09-29T05:22:27.667Z,94648.19
2022-09-29T05:24:54.433Z,94648.19
2022-09-29T05:27:22.510Z,94650.44
2022-09-29T05:29:49.591Z,94648.47
2022-09-29T05:32:17.028Z,94646.47
2022-09-29T05:34:43.901Z,94645.50
2022-09-29T05:37:11.592Z,94647.13
2022-09-29T05:39:38.524Z,94650.34
2022-09-29T05:42:06.681Z,94651.97
2022-09-29T05:44:33.935Z,94656.00
2022-09-29T05:47:00.747Z,94653.19
2022-09-29T05:49:27.573Z,94653.19
2022-09-29T05:51:54.314Z,94655.63
2022-09-29T05:54:21.445Z,94651.88
2022-09-29T05:56:48.272Z,94648.91
2022-09-29T05:59:15.294Z,94654.56
2022-09-29T06:01:42.593Z,94657.31
2022-09-29T06:04:09.382Z,94661.28
2022-09-29T06:06:40.522Z,94650.88
2022-09-29T06:09:08.096Z,94660.09
2022-09-29T06:11:34.960Z,94655.34
2022-09-29T06:14:02.821Z,94659.84
2022-09-29T06:16:31.543Z,94662.06
2022-09-29T06:19:02.133Z,94654.88
2022-09-29T06:21:30.815Z,94657.31
2022-09-29T06:23:58.360Z,94660.72
2022-09-29T06:26:27.198Z,94657.56
2022-09-29T06:28:54.853Z,94662.41
2022-09-29T06:31:24.885Z,94657.09
2022-09-29T06:33:51.906Z,94659.53
2022-09-29T06:36:40.118Z,94655.00
2022-09-29T06:39:08.904Z,94657.13
2022-09-29T06:41:35.707Z,94656.03
2022-09-29T06:44:03.497Z,94659.06
2022-09-29T06:46:30.914Z,94663.28
2022-09-29T06:48:58.018Z,94668.13
2022-09-29T06:51:37.908Z,94663.59
2022-09-29T06:54:12.353Z,94670.47
2022-09-29T06:56:40.095Z,94667.69
2022-09-29T06:59:07.799Z,94669.72
2022-09-29T07:01:35.163Z,94662.19
2022-09-29T07:04:02.611Z,94672.03
2022-09-29T07:06:30.391Z,94674.88
2022-09-29T07:08:58.949Z,94672.34
2022-09-29T07:11:26.797Z,94675.38
2022-09-29T07:13:54.928Z,94669.97
2022-09-29T07:16:24.339Z,94672.63
2022-09-29T07:18:51.595Z,94674.25
2022-09-29T07:21:19.409Z,94673.06
2022-09-29T07:23:47.194Z,94679.50
2022-09-29T07:26:16.741Z,94680.72
2022-09-29T07:28:44.891Z,94678.53
2022-09-29T07:31:15.809Z,94676.75
2022-09-29T07:33:44.115Z,94680.00
2022-09-29T07:36:11.823Z,94681.22
2022-09-29T07:38:38.603Z,94682.88
2022-09-29T07:41:08.338Z,94685.00
2022-09-29T07:43:35.346Z,94687.47
2022-09-29T07:46:02.302Z,94686.50
2022-09-29T07:48:32.128Z,94682.94
2022-09-29T07:51:08.266Z,94683.56
2022-09-29T07:53:36.389Z,94691.84
2022-09-29T07:56:11.482Z,94692.53
2022-09-29T07:58:39.237Z,94693.72
2022-09-29T08:01:10.628Z,94690.13
2022-09-29T08:03:39.306Z,94693.56
2022-09-29T08:06:07.473Z,94692.97
2022-09-29T08:08:41.958Z,94692.78
2022-09-29T08:11:24.783Z,94697.84
2022-09-29T08:13:54.859Z,94699.84
2022-09-29T08:16:21.995Z,94697.03
2022-09-29T08:18:48.820Z,94702.72
2022-09-29T08:21:15.868Z,94699.06
2022-09-29T08:23:43.830Z,94703.13
2022-09-29T08:26:16.166Z,94704.53
2022-09-29T08:28:43.940Z,94707.13
2022-09-29T08:31:14.354Z,94709.91
2022-09-29T08:33:41.416Z,94720.75
2022-09-29T08:36:14.852Z,94718.94
2022-09-29T08:38:46.352Z,94726.38
2022-09-29T08:41:34.165Z,94724.38
2022-09-29T08:44:30.280Z,94727.59
2022-09-29T08:47:21.408Z,94726.63
2022-09-29T08:49:59.556Z,94729.22
2022-09-29T08:52:35.504Z,94724.88
2022-09-29T08:55:24.425Z,94729.34
2022-09-29T08:57:57.174Z,94731.78
2022-09-29T09:00:52.471Z,94732.78
2022-09-29T09:03:44.291Z,94745.69
2022-09-29T09:06:19.759Z,94740.66
2022-09-29T09:08:55.678Z,94742.50
2022-09-29T09:11:46.750Z,94740.75
2022-09-29T09:14:51.924Z,94737.34
2022-09-29T09:17:35.169Z,94742.56
2022-09-29T09:20:23.991Z,94746.22
2022-09-29T09:22:58.833Z,94745.22
2022-09-29T09:25:57.539Z,94743.00
2022-09-29T09:28:34.803Z,94739.19
2022-09-29T09:31:23.867Z,94741.59
2022-09-29T09:34:04.902Z,94747.22
2022-09-29T09:36:41.511Z,94743.22
2022-09-29T09:39:19.796Z,94749.47
2022-09-29T09:41:51.083Z,94754.28
2022-09-29T09:44:26.000Z,94756.88
2022-09-29T09:46:59.515Z,94753.47
2022-09-29T09:49:44.236Z,94750.44
2022-09-29T09:52:20.912Z,94753.25
2022-09-29T09:54:52.662Z,94754.25
2022-09-29T09:57:56.459Z,94754.25
2022-09-29T10:00:23.149Z,94745.94
2022-09-29T10:02:51.843Z,94754.81
2022-09-29T10:05:21.653Z,94759.66
2022-09-29T10:07:49.185Z,94763.66
2022-09-29T10:10:27.037Z,94766.06
2022-09-29T10:13:14.011Z,94756.56
2022-09-29T10:15:47.810Z,94756.75
2022-09-29T10:18:25.926Z,94758.13
2022-09-29T10:20:52.893Z,94756.28
2022-09-29T10:23:30.176Z,94758.69
2022-09-29T10:26:10.072Z,94760.47
2022-09-29T10:28:41.901Z,94753.03
2022-09-29T10:31:34.341Z,94751.88
2022-09-29T10:34:03.326Z,94758.34
2022-09-29T10:36:34.550Z,94757.13
2022-09-29T10:39:03.355Z,94764.75
2022-09-29T10:41:37.797Z,94761.91
2022-09-29T10:44:21.456Z,94763.59
2022-09-29T10:46:53.013Z,94756.28
2022-09-29T10:49:22.465Z,94763.34
2022-09-29T10:52:02.285Z,94764.28
2022-09-29T10:54:33.458Z,94765.47
2022-09-29T10:57:12.486Z,94758.34
2022-09-29T10:59:47.718Z,94764.75
2022-09-29T11:02:24.323Z,94759.88
2022-09-29T11:04:53.882Z,94764.50
2022-09-29T11:07:20.951Z,94767.72
2022-09-29T11:09:47.891Z,94766.88
2022-09-29T11:12:41.179Z,94769.31
2022-09-29T11:15:27.711Z,94771.69
2022-09-29T11:17:56.117Z,94779.28
2022-09-29T11:20:30.786Z,94774.50
2022-09-29T11:23:10.398Z,94767.66
2022-09-29T11:26:10.331Z,94778.75
2022-09-29T11:28:46.360Z,94778.25
2022-09-29T11:31:43.989Z,94770.31
2022-09-29T11:34:37.676Z,94778.94
2022-09-29T11:37:39.597Z,94768.94
2022-09-29T11:40:25.567Z,94779.41
2022-09-29T11:43:11.163Z,94772.53
2022-09-29T11:45:47.563Z,94772.09
2022-09-29T11:48:29.980Z,94777.41
2022-09-29T11:51:05.532Z,94779.31
2022-09-29T11:53:47.490Z,94775.66
2022-09-29T11:56:55.678Z,94780.19
2022-09-29T11:59:37.901Z,94775.50
2022-09-29T12:02:25.983Z,94784.06
2022-09-29T12:05:07.554Z,94783.94
2022-09-29T12:07:58.167Z,94780.28
2022-09-29T12:10:36.700Z,94777.47
2022-09-29T12:13:21.466Z,94775.63
2022-09-29T12:16:04.309Z,94779.34
2022-09-29T12:19:00.341Z,94776.00
2022-09-29T12:21:40.904Z,94777.81
2022-09-29T12:24:15.782Z,94782.47
2022-09-29T12:26:44.800Z,94782.66
2022-09-29T12:29:33.778Z,94788.41
2022-09-29T12:32:09.287Z,94784.75
2022-09-29T12:34:43.792Z,94782.25
2022-09-29T12:37:15.410Z,94784.47
2022-09-29T12:39:48.078Z,94785.50
2022-09-29T12:42:41.334Z,94794.97
2022-09-29T12:45:35.623Z,94790.31
2022-09-29T12:48:31.793Z,94793.53
2022-09-29T12:51:09.996Z,94799.41
2022-09-29T12:53:57.911Z,94783.66
2022-09-29T12:56:32.217Z,94787.09
2022-09-29T12:59:05.288Z,94787.31
2022-09-29T13:01:37.864Z,94788.25
2022-09-29T13:04:39.679Z,94778.69
2022-09-29T13:07:20.823Z,94786.34
2022-09-29T13:10:03.103Z,94796.81
2022-09-29T13:12:38.380Z,94782.72
2022-09-29T13:15:20.150Z,94786.75
2022-09-29T13:18:01.893Z,94788.91
2022-09-29T13:20:49.194Z,94790.53
2022-09-29T13:23:25.944Z,94789.16
2022-09-29T13:26:01.745Z,94792.03
2022-09-29T13:28:41.878Z,94788.22
2022-09-29T13:31:19.380Z,94798.00
2022-09-29T13:33:53.949Z,94802.28
2022-09-29T13:36:36.413Z,94804.69
2022-09-29T13:39:07.062Z,94811.91
2022-09-29T13:41:40.482Z,94801.19
2022-09-29T13:44:28.193Z,94790.06
2022-09-29T13:46:56.482Z,94798.44
2022-09-29T13:49:26.358Z,94797.94
2022-09-29T13:52:11.779Z,94793.56
2022-09-29T13:54:42.881Z,94786.94
2022-09-29T13:57:12.676Z,94791.75
2022-09-29T13:59:46.022Z,94787.63
2022-09-29T14:02:49.454Z,94797.34
2022-09-29T14:05:25.242Z,94797.63
2022-09-29T14:07:56.002Z,94799.19
2022-09-29T14:10:24.458Z,94802.38
2022-09-29T14:13:04.294Z,94796.41
2022-09-29T14:15:56.289Z,94798.09
2022-09-29T14:18:35.602Z,94809.13
2022-09-29T14:22:01.427Z,94806.25
2022-09-29T14:24:49.506Z,94804.28
2022-09-29T14:27:28.105Z,94796.38
2022-09-29T14:30:02.187Z,94803.03
2022-09-29T14:32:48.630Z,94805.22
2022-09-29T14:35:24.783Z,94804.63
2022-09-29T14:38:01.053Z,94816.41
2022-09-29T14:40:28.384Z,94814.06
2022-09-29T14:43:14.413Z,94815.53
2022-09-29T14:46:15.706Z,94824.63
2022-09-29T14:49:13.031Z,94816.94
2022-09-29T14:52:06.182Z,94815.50
2022-09-29T14:54:54.584Z,94820.31
2022-09-29T14:57:37.146Z,94828.63
2022-09-29T15:00:17.593Z,94828.28
2022-09-29T15:03:00.004Z,94830.91
2022-09-29T15:05:35.029Z,94832.25
2022-09-29T15:08:03.684Z,94833.25
2022-09-29T15:10:41.568Z,94831.34
2022-09-29T15:13:24.583Z,94835.03
2022-09-29T15:16:11.714Z,94836.81
2022-09-29T15:18:39.174Z,94844.13
2022-09-29T15:21:35.483Z,94845.94
2022-09-29T15:24:21.031Z,94852.00
2022-09-29T15:26:48.637Z,94853.63
2022-09-29T15:29:18.382Z,94851.19
2022-09-29T15:31:49.549Z,94858.69
2022-09-29T15:34:22.510Z,94856.28
2022-09-29T15:36:53.582Z,94871.44
2022-09-29T15:39:33.257Z,94868.03
2022-09-29T15:42:15.021Z,94876.72
2022-09-29T15:45:02.993Z,94879.94
2022-09-29T15:47:41.809Z,94881.53
2022-09-29T15:50:21.467Z,94884.16
2022-09-29T15:52:50.554Z,94892.47
2022-09-29T15:55:21.713Z,94892.88
2022-09-29T15:57:53.446Z,94896.97
2022-09-29T16:00:23.871Z,94899.34
2022-09-29T16:03:20.496Z,94903.81
2022-09-29T16:06:03.878Z,94898.56
2022-09-29T16:08:34.764Z,94903.22
2022-09-29T16:11:04.592Z,94910.34
2022-09-29T16:13:33.961Z,94916.22
2022-09-29T16:16:04.819Z,94923.91
2022-09-29T16:18:43.813Z,94926.38
2022-09-29T16:21:18.683Z,94923.34
2022-09-29T16:23:51.100Z,94933.47
2022-09-29T16:26:33.527Z,94933.09
2022-09-29T16:29:00.261Z,94939.72
2022-09-29T16:31:30.663Z,94945.38
2022-09-29T16:34:02.060Z,94943.97
2022-09-29T16:36:34.523Z,94948.84
2022-09-29T16:39:02.731Z,94941.59
2022-09-29T16:41:43.864Z,94949.28
2022-09-29T16:44:17.651Z,94953.53
2022-09-29T16:46:56.699Z,94958.97
2022-09-29T16:49:31.720Z,94959.81
2022-09-29T16:52:23.155Z,94964.88
2022-09-29T16:54:52.510Z,94963.88
2022-09-29T16:57:23.913Z,94964.50
2022-09-29T16:59:53.820Z,94969.94
2022-09-29T17:02:22.730Z,94973.41
2022-09-29T17:04:54.462Z,94975.22
2022-09-29T17:07:23.859Z,94981.47
2022-09-29T17:09:56.519Z,94977.06
2022-09-29T17:12:24.337Z,94973.59
2022-09-29T17:14:51.224Z,94982.28
2022-09-29T17:17:24.165Z,94986.50
2022-09-29T17:19:52.736Z,94981.06
2022-09-29T17:22:25.785Z,94982.69
2022-09-29T17:24:52.824Z,94992.09
2022-09-29T17:27:38.907Z,94987.25
2022-09-29T17:30:06.598Z,94990.88
2022-09-29T17:32:33.369Z,94992.50
2022-09-29T17:35:00.262Z,94993.50
2022-09-29T17:37:27.026Z,94992.47
2022-09-29T17:39:54.210Z,94992.06
2022-09-29T17:42:21.571Z,94996.88
2022-09-29T17:44:48.583Z,94994.03
2022-09-29T17:47:27.673Z,94995.19
2022-09-29T17:49:55.555Z,94995.78
2022-09-29T17:52:23.042Z,94998.59
2022-09-29T17:54:49.834Z,94998.63
2022-09-29T17:57:21.096Z,94997.22
2022-09-29T17:59:47.950Z,94999.22
2022-09-29T18:02:14.784Z,95000.63
2022-09-29T18:04:48.207Z,95002.81
2022-09-29T18:07:16.044Z,94995.97
2022-09-29T18:09:43.235Z,94990.75
2022-09-29T18:12:10.165Z,94995.78
2022-09-29T18:14:37.029Z,94993.34
2022-09-29T18:17:09.172Z,94991.16
2022-09-29T18:19:40.149Z,94987.13
2022-09-29T18:22:08.028Z,94989.13
2022-09-29T18:24:34.900Z,94990.75
2022-09-29T18:27:02.256Z,94993.34
2022-09-29T18:29:31.576Z,94999.59
2022-09-29T18:31:59.229Z,94995.97
2022-09-29T18:34:26.924Z,94991.16
2022-09-29T18:36:53.776Z,95000.41
2022-09-29T18:39:20.646Z,94994.34
2022-09-29T18:41:47.573Z,94999.59
2022-09-29T18:44:16.832Z,95004.78
2022-09-29T18:46:44.558Z,95002.13
2022-09-29T18:49:13.981Z,95008.34
2022-09-29T18:51:41.386Z,95007.34
2022-09-29T18:54:08.435Z,95010.56
2022-09-29T18:56:35.356Z,95002.28
2022-09-29T18:59:03.700Z,95009.94
2022-09-29T19:01:30.597Z,95018.97
2022-09-29T19:03:57.426Z,95018.09
2022-09-29T19:06:24.614Z,95021.28
2022-09-29T19:08:52.327Z,95025.53
2022-09-29T19:11:22.282Z,95026.94
2022-09-29T19:13:55.210Z,95029.75
2022-09-29T19:16:23.712Z,95032.16
2022-09-29T19:18:50.626Z,95048.44
2022-09-29T19:21:17.934Z,95047.06
2022-09-29T19:23:46.778Z,95045.88
2022-09-29T19:26:19.995Z,95043.06
2022-09-29T19:28:48.251Z,95054.34
2022-09-29T19:31:19.467Z,95061.97
2022-09-29T19:33:47.642Z,95066.41
2022-09-29T19:36:17.818Z,95060.56
2022-09-29T19:38:45.816Z,95068.41
2022-09-29T19:41:19.467Z,95081.47
2022-09-29T19:43:46.445Z,95084.28
2022-09-29T19:46:14.139Z,95075.81
2022-09-29T19:48:43.380Z,95079.81
2022-09-29T19:51:32.869Z,95079.22
2022-09-29T19:54:11.100Z,95079.22
2022-09-29T19:56:49.694Z,95084.03
2022-09-29T19:59:26.423Z,95079.81
2022-09-29T20:01:53.328Z,95087.47
2022-09-29T20:04:25.840Z,95083.88
2022-09-29T20:06:56.365Z,95086.44
2022-09-29T20:09:23.372Z,95087.16
2022-09-29T20:11:50.235Z,95097.34
2022-09-29T20:14:21.811Z,95096.25
2022-09-29T20:16:49.706Z,95101.25
2022-09-29T20:19:18.787Z,95106.19
2022-09-29T20:21:49.047Z,95100.66
2022-09-29T20:24:17.546Z,95107.19
2022-09-29T20:26:46.213Z,95106.50
2022-09-29T20:29:14.649Z,95111.22
2022-09-29T20:31:41.878Z,95105.72
2022-09-29T20:34:09.519Z,95118.34
2022-09-29T20:36:36.276Z,95120.97
2022-09-29T20:39:03.591Z,95113.94
2022-09-29T20:41:30.557Z,95120.16
2022-09-29T20:43:58.656Z,95120.53
2022-09-29T20:46:27.527Z,95125.75
2022-09-29T20:48:56.749Z,95126.72
2022-09-29T20:51:24.696Z,95130.31
2022-09-29T20:53:56.873Z,95140.16
2022-09-29T20:56:31.435Z,95133.31
2022-09-29T20:59:00.139Z,95138.56
2022-09-29T21:01:29.430Z,95142.16
2022-09-29T21:04:05.037Z,95136.94
2022-09-29T21:06:34.532Z,95139.53
2022-09-29T21:09:02.651Z,95142.16
2022-09-29T21:11:29.528Z,95146.81
2022-09-29T21:13:59.058Z,95148.25
2022-09-29T21:16:26.081Z,95148.25
2022-09-29T21:18:55.185Z,95146.28
2022-09-29T21:21:22.387Z,95151.84
2022-09-29T21:23:50.668Z,95151.22
2022-09-29T21:26:21.013Z,95148.78
2022-09-29T21:28:53.090Z,95152.59
2022-09-29T21:31:22.335Z,95154.56
2022-09-29T21:33:54.616Z,95157.53
2022-09-29T21:36:24.027Z,95155.41
2022-09-29T21:38:51.754Z,95153.22
2022-09-29T21:41:23.010Z,95149.25
2022-09-29T21:43:52.558Z,95150.06
2022-09-29T21:46:21.892Z,95150.06
2022-09-29T21:48:56.559Z,95151.84
2022-09-29T21:51:26.734Z,95152.66
2022-09-29T21:53:57.669Z,95156.06
2022-09-29T21:56:26.520Z,95155.44
2022-09-29T21:58:54.937Z,95154.47
2022-09-29T22:01:22.486Z,95167.69
2022-09-29T22:03:50.080Z,95161.66
2022-09-29T22:06:22.423Z,95165.28
2022-09-29T22:08:50.418Z,95170.50
2022-09-29T22:11:19.939Z,95174.72
2022-09-29T22:13:54.318Z,95176.72
2022-09-29T22:16:22.128Z,95183.91
2022-09-29T22:19:05.853Z,95182.47
2022-09-29T22:21:36.666Z,95190.31
2022-09-29T22:24:03.865Z,95193.72
2022-09-29T22:26:31.997Z,95196.25
2022-09-29T22:29:02.972Z,95197.59
2022-09-29T22:31:31.088Z,95208.25
2022-09-29T22:34:04.520Z,95199.94
2022-09-29T22:36:33.442Z,95202.09
2022-09-29T22:39:01.866Z,95192.66
2022-09-29T22:41:29.664Z,95190.69
2022-09-29T22:43:59.454Z,95189.34
2022-09-29T22:46:28.403Z,95189.97
2022-09-29T22:48:55.658Z,95191.56
2022-09-29T22:51:22.492Z,95200.41
2022-09-29T22:53:49.632Z,95202.09
2022-09-29T22:56:22.275Z,95203.47
2022-09-29T22:58:49.877Z,95201.00
2022-09-29T23:01:18.338Z,95201.84
2022-09-29T23:03:46.122Z,95203.09
2022-09-29T23:06:13.651Z,95204.72
2022-09-29T23:08:41.010Z,95201.94
2022-09-29T23:11:08.412Z,95198.34
2022-09-29T23:13:37.241Z,95203.72
2022-09-29T23:16:12.330Z,95202.72
2022-09-29T23:18:44.836Z,95199.50
2022-09-29T23:21:20.173Z,95203.91
2022-09-29T23:24:00.978Z,95204.91
2022-09-29T23:26:29.836Z,95205.44
2022-09-29T23:28:56.875Z,95211.38
2022-09-29T23:31:24.386Z,95215.63
2022-09-29T23:33:56.044Z,95219.28
2022-09-29T23:36:24.606Z,95211.44
2022-09-29T23:39:09.965Z,95212.63
2022-09-29T23:41:45.312Z,95221.28
2022-09-29T23:44:15.493Z,95212.28
2022-09-29T23:46:43.054Z,95212.72
2022-09-29T23:49:12.522Z,95210.22
2022-09-29T23:51:45.440Z,95209.47
2022-09-29T23:54:14.091Z,95206.88
2022-09-29T23:56:40.933Z,95208.84
2022-09-29T23:59:08.404Z,95210.84
